Other Surface Observations
Issued by NWS Great Falls, MT

Home | Current Version | Previous Version | Text Only | Print | Product List | Glossary On
Versions: 1 2 3 4 5 6 7 8 9 10 11 12 13 14 15 16 17 18 19 20 21 22 23 24 25 26 27 28 29 30 31 32 33 34 35 36 37 38 39 40 41 42 43 44 45 46 47 48 49 50
000
SXUS55 KTFX 280044
OSOTFX
AREA AWOS OBSERVATIONS
NATIONAL WEATHER SERVICE GREAT FALLS MT
0644 PM MDT FRI MAY 27 2016

METAR KPWD 280045Z AUTO 06014KT 10SM 18/12 A2985 RMK PLENTYWOOD
METAR KPO1 280045Z AUTO 10008KT 10SM 19/09 A2982 RMK POPLAR
METAR K1S3 280045Z AUTO 07005KT 10SM 19/09 A2981 RMK FORSYTH
METAR KS71 280045Z AUTO 15009G15KT 10SM 17/08 A2981 RMK CHINOOK
METAR K38S 280045Z AUTO 29009KT 10SM 11/04 A2995 RMK DEER LODGE
METAR K3U3 280045Z AUTO 05004KT 08/04 A2996 RMK ANACONDA
METAR K6S5 280045Z AUTO 32006KT 10SM 14/M02 A2995 RMK HAMILTON
METAR KS59 280045Z AUTO 34015G22KT 10SM 11/03 A2996 RMK LIBBY
METAR K88M 280045Z AUTO 16009KT 10SM 14/02 RMK EUREKA



USA.gov is the U.S. government's official web portal to all federal, state and local government web resources and services.